createdAt,value
2019-05-09T00:00:53.508Z,4.47
2019-05-09T00:03:24.123Z,4.33
2019-05-09T00:05:54.268Z,4.80
2019-05-09T00:08:23.746Z,4.47
2019-05-09T00:10:53.575Z,4.70
2019-05-09T00:13:23.744Z,4.83
2019-05-09T00:15:54.165Z,4.73
2019-05-09T00:18:23.846Z,4.17
2019-05-09T00:20:54.987Z,5.67
2019-05-09T00:23:24.354Z,3.63
2019-05-09T00:25:53.926Z,6.40
2019-05-09T00:28:25.128Z,3.80
2019-05-09T00:30:56.131Z,8.33
2019-05-09T00:33:27.166Z,5.00
2019-05-09T00:35:56.278Z,7.80
2019-05-09T00:38:27.460Z,7.03
2019-05-09T00:40:58.980Z,8.97
2019-05-09T00:43:27.991Z,8.83
2019-05-09T00:46:04.176Z,8.43
2019-05-09T00:51:30.574Z,11.77
2019-05-09T00:54:00.214Z,8.53
2019-05-09T00:56:29.822Z,11.93
2019-05-09T00:58:59.227Z,9.67
2019-05-09T01:01:28.849Z,8.90
2019-05-09T01:03:58.336Z,8.90
2019-05-09T01:06:27.734Z,8.60
2019-05-09T01:08:56.894Z,11.17
2019-05-09T01:11:26.028Z,8.83
2019-05-09T01:13:55.428Z,9.33
2019-05-09T01:16:24.881Z,12.03
2019-05-09T01:18:54.689Z,7.23
2019-05-09T01:21:24.326Z,6.90
2019-05-09T01:23:54.152Z,8.27
2019-05-09T01:27:25.550Z,7.30
2019-05-09T01:29:56.277Z,8.47
2019-05-09T01:32:43.934Z,8.40
2019-05-09T01:35:13.329Z,8.07
2019-05-09T01:37:43.416Z,8.40
2019-05-09T01:40:13.259Z,9.07
2019-05-09T01:42:43.239Z,9.43
2019-05-09T01:45:14.161Z,9.63
2019-05-09T01:47:43.768Z,12.83
2019-05-09T01:50:14.040Z,9.60
2019-05-09T01:52:43.966Z,10.93
2019-05-09T01:55:14.688Z,10.33
2019-05-09T01:57:47.800Z,10.17
2019-05-09T02:00:16.079Z,9.80
2019-05-09T02:02:45.476Z,9.53
2019-05-09T02:05:14.577Z,11.13
2019-05-09T02:07:44.045Z,10.30
2019-05-09T02:10:14.006Z,10.63
2019-05-09T02:12:47.218Z,14.57
2019-05-09T02:15:21.121Z,11.50
2019-05-09T02:18:08.035Z,13.47
2019-05-09T02:20:36.991Z,12.57
2019-05-09T02:23:06.344Z,13.20
2019-05-09T02:25:35.550Z,22.33
2019-05-09T02:28:04.914Z,17.40
2019-05-09T02:30:35.995Z,19.00
2019-05-09T02:33:05.673Z,15.70
2019-05-09T02:35:41.576Z,22.97
2019-05-09T02:38:09.170Z,22.13
2019-05-09T02:40:39.386Z,17.27
2019-05-09T02:43:09.935Z,22.10
2019-05-09T02:45:59.445Z,15.70
2019-05-09T02:48:28.833Z,30.83
2019-05-09T02:51:00.117Z,28.63
2019-05-09T02:53:29.807Z,37.27
2019-05-09T02:55:59.228Z,18.50
2019-05-09T02:58:30.278Z,21.10
2019-05-09T03:01:10.067Z,22.70
2019-05-09T03:03:40.627Z,23.37
2019-05-09T03:06:09.981Z,17.60
2019-05-09T03:08:39.332Z,23.23
2019-05-09T03:11:09.857Z,20.37
2019-05-09T03:13:39.737Z,42.67
2019-05-09T03:16:10.934Z,28.07
2019-05-09T03:18:40.026Z,26.33
2019-05-09T03:21:29.462Z,22.47
2019-05-09T03:23:59.188Z,29.03
2019-05-09T03:26:29.902Z,22.73
2019-05-09T03:29:05.073Z,25.60
2019-05-09T03:31:39.395Z,22.97
2019-05-09T03:36:49.838Z,43.07
2019-05-09T03:39:19.263Z,41.77
2019-05-09T03:41:48.882Z,60.07
2019-05-09T03:44:19.229Z,20.27
2019-05-09T03:46:49.911Z,27.53
2019-05-09T03:49:20.888Z,32.00
2019-05-09T03:51:50.319Z,12.57
2019-05-09T03:54:19.765Z,15.53
2019-05-09T03:57:00.013Z,25.20
2019-05-09T03:59:29.565Z,12.60
2019-05-09T04:01:59.245Z,16.13
2019-05-09T04:04:29.498Z,15.03
2019-05-09T04:06:58.787Z,35.27
2019-05-09T04:09:28.144Z,16.47
2019-05-09T04:11:58.358Z,21.73
2019-05-09T04:14:29.981Z,17.10
2019-05-09T04:16:59.510Z,9.87
2019-05-09T04:19:28.775Z,12.47
2019-05-09T04:21:58.133Z,7.10
2019-05-09T04:24:28.960Z,11.57
2019-05-09T04:26:59.998Z,19.93
2019-05-09T04:29:29.393Z,11.03
2019-05-09T04:31:58.743Z,15.87
2019-05-09T04:34:28.136Z,12.60
2019-05-09T04:36:57.779Z,15.63
2019-05-09T04:39:28.360Z,11.77
2019-05-09T04:42:03.505Z,8.77
2019-05-09T04:44:33.610Z,7.47
2019-05-09T04:47:03.941Z,10.07
2019-05-09T04:49:39.308Z,8.07
2019-05-09T04:52:04.543Z,6.70
2019-05-09T04:54:33.937Z,5.53
2019-05-09T04:57:03.307Z,8.37
2019-05-09T04:59:33.666Z,5.37
2019-05-09T05:02:21.027Z,6.67
2019-05-09T05:04:50.303Z,11.43
2019-05-09T05:07:19.647Z,5.70
2019-05-09T05:09:48.988Z,2.30
2019-05-09T05:12:18.645Z,4.47
2019-05-09T05:18:20.284Z,4.67
2019-05-09T05:23:39.771Z,0.10
2019-05-09T05:26:11.457Z,0.10
2019-05-09T05:28:40.956Z,0.10
2019-05-09T05:35:34.805Z,0.10
2019-05-09T05:38:04.982Z,0.10
2019-05-09T05:40:44.999Z,0.10
2019-05-09T05:57:34.684Z,0.10
2019-05-09T06:00:07.885Z,0.00
2019-05-09T06:02:39.500Z,0.10
2019-05-09T06:05:08.872Z,0.10
2019-05-09T06:07:41.153Z,0.00
2019-05-09T06:14:29.355Z,0.10
2019-05-09T06:16:59.502Z,0.10
2019-05-09T06:19:48.215Z,0.00
2019-05-09T06:22:18.355Z,0.07
2019-05-09T06:24:52.441Z,0.00
2019-05-09T06:27:21.833Z,0.10
2019-05-09T06:29:54.318Z,0.10
2019-05-09T06:32:24.451Z,0.00
2019-05-09T06:34:53.820Z,0.00
2019-05-09T06:37:23.193Z,0.10
2019-05-09T06:39:53.650Z,0.10
2019-05-09T06:42:25.404Z,0.10
2019-05-09T06:45:08.782Z,0.00
2019-05-09T06:47:40.461Z,0.00
2019-05-09T06:53:05.023Z,0.00
2019-05-09T06:55:34.387Z,0.00
2019-05-09T06:58:08.954Z,0.00
2019-05-09T07:00:49.325Z,0.00
2019-05-09T07:03:20.126Z,0.10
2019-05-09T07:05:54.049Z,0.00
2019-05-09T07:08:33.867Z,0.03
2019-05-09T07:11:03.209Z,0.10
2019-05-09T07:13:34.159Z,0.20
2019-05-09T07:16:03.545Z,0.00
2019-05-09T07:18:35.431Z,0.00
2019-05-09T07:21:05.308Z,0.00
2019-05-09T07:23:37.116Z,0.10
2019-05-09T07:26:17.730Z,0.10
2019-05-09T07:28:52.975Z,0.00
2019-05-09T07:31:28.419Z,0.00
2019-05-09T07:34:02.326Z,0.10
2019-05-09T07:36:31.829Z,0.00
2019-05-09T07:39:01.321Z,0.00
2019-05-09T07:41:33.646Z,0.00
2019-05-09T07:44:04.005Z,0.10
2019-05-09T07:46:33.773Z,0.00
2019-05-09T07:49:02.927Z,0.00
2019-05-09T07:51:32.310Z,0.10
2019-05-09T07:54:18.241Z,0.00
2019-05-09T07:56:34.601Z,0.10
2019-05-09T07:59:04.083Z,0.00
2019-05-09T08:01:33.555Z,0.10
2019-05-09T08:04:03.004Z,0.00
2019-05-09T08:06:32.369Z,0.00
2019-05-09T08:09:01.983Z,0.00
2019-05-09T08:11:32.556Z,0.03
2019-05-09T08:14:02.324Z,0.00
2019-05-09T08:16:31.716Z,0.00
2019-05-09T08:19:01.026Z,0.10
2019-05-09T08:21:30.437Z,0.00
2019-05-09T08:23:59.799Z,0.00
2019-05-09T08:26:30.224Z,0.10
2019-05-09T08:29:00.451Z,0.10
2019-05-09T08:31:29.939Z,0.03
2019-05-09T08:33:59.656Z,0.00
2019-05-09T08:36:31.684Z,0.00
2019-05-09T08:39:02.719Z,0.00
2019-05-09T08:41:34.255Z,0.10
2019-05-09T08:44:03.735Z,0.03
2019-05-09T08:46:33.451Z,0.10
2019-05-09T08:49:07.980Z,0.10
2019-05-09T08:51:55.644Z,0.00
2019-05-09T08:54:33.974Z,0.10
2019-05-09T08:57:18.277Z,0.10
2019-05-09T08:59:50.785Z,0.10
2019-05-09T09:02:23.854Z,0.10
2019-05-09T09:05:18.446Z,0.10
2019-05-09T09:07:48.803Z,0.00
2019-05-09T09:10:18.837Z,0.00
2019-05-09T09:12:48.815Z,0.00
2019-05-09T09:18:11.094Z,0.10
2019-05-09T09:20:58.827Z,0.00
2019-05-09T09:23:49.709Z,0.10
2019-05-09T09:26:32.515Z,0.10
2019-05-09T09:29:01.885Z,0.10
2019-05-09T09:31:32.660Z,0.10
2019-05-09T09:34:02.089Z,0.10
2019-05-09T09:36:31.941Z,0.03
2019-05-09T09:39:03.093Z,0.20
2019-05-09T09:41:32.498Z,0.10
2019-05-09T09:44:01.968Z,0.20
2019-05-09T09:46:31.397Z,0.10
2019-05-09T09:49:00.784Z,0.10
2019-05-09T09:51:30.226Z,0.10
2019-05-09T09:53:59.613Z,0.10
2019-05-09T09:56:29.044Z,0.10
2019-05-09T09:59:00.088Z,0.10
2019-05-09T10:01:31.128Z,0.23
2019-05-09T10:04:16.563Z,0.10
2019-05-09T10:06:38.837Z,0.10
2019-05-09T10:09:11.000Z,0.10
2019-05-09T10:11:40.126Z,0.10
2019-05-09T10:14:10.819Z,0.10
2019-05-09T10:16:59.764Z,0.30
2019-05-09T10:19:35.656Z,0.00
2019-05-09T10:22:08.379Z,0.10
2019-05-09T10:24:37.640Z,0.10
2019-05-09T10:27:09.086Z,0.10
2019-05-09T10:29:38.958Z,0.10
2019-05-09T10:32:10.705Z,0.10
2019-05-09T10:34:40.348Z,0.10
2019-05-09T10:37:09.706Z,0.10
2019-05-09T10:39:39.190Z,0.10
2019-05-09T10:42:28.589Z,0.10
2019-05-09T10:47:50.173Z,0.10
2019-05-09T10:50:19.632Z,0.10
2019-05-09T10:52:50.065Z,0.10
2019-05-09T10:55:21.750Z,0.10
2019-05-09T10:57:54.449Z,0.03
2019-05-09T11:00:24.034Z,0.53
2019-05-09T11:02:54.464Z,0.10
2019-05-09T11:05:29.264Z,0.00
2019-05-09T11:07:59.467Z,0.10
2019-05-09T11:14:03.787Z,0.20
2019-05-09T11:16:45.415Z,0.10
2019-05-09T11:19:10.695Z,0.40
2019-05-09T11:21:40.264Z,0.10
2019-05-09T11:26:59.945Z,0.17
2019-05-09T11:29:30.204Z,0.10
2019-05-09T11:32:02.059Z,0.40
2019-05-09T11:34:32.522Z,0.83
2019-05-09T11:39:48.159Z,0.17
2019-05-09T11:42:18.683Z,0.23
2019-05-09T11:44:50.368Z,0.10
2019-05-09T11:47:31.837Z,0.10
2019-05-09T11:49:51.997Z,0.10
2019-05-09T11:52:21.508Z,0.10
2019-05-09T11:56:48.216Z,0.10
2019-05-09T11:59:18.862Z,5.30
2019-05-09T12:01:48.629Z,0.10
2019-05-09T12:04:18.684Z,0.20
2019-05-09T12:07:47.791Z,0.10
2019-05-09T12:10:18.778Z,0.07
2019-05-09T12:12:48.448Z,0.30
2019-05-09T12:15:17.812Z,0.10
2019-05-09T12:17:57.830Z,0.03
2019-05-09T12:20:19.053Z,0.10
2019-05-09T12:22:48.616Z,0.10
2019-05-09T12:25:18.488Z,0.05
2019-05-09T12:27:48.671Z,0.10
2019-05-09T12:30:19.009Z,0.10
2019-05-09T12:32:48.597Z,0.08
2019-05-09T12:35:19.119Z,0.20
2019-05-09T12:37:48.766Z,0.10
2019-05-09T12:40:20.140Z,0.10
2019-05-09T12:42:50.270Z,0.10
2019-05-09T12:45:20.883Z,0.10
2019-05-09T12:48:05.177Z,0.20
2019-05-09T12:50:21.661Z,0.10
2019-05-09T12:52:51.190Z,0.10
2019-05-09T12:55:47.558Z,0.10
2019-05-09T12:59:52.925Z,0.10
2019-05-09T13:03:52.751Z,0.10
2019-05-09T13:06:22.217Z,0.10
2019-05-09T13:08:51.874Z,0.08
2019-05-09T13:11:21.414Z,0.10
2019-05-09T13:15:51.819Z,0.10
2019-05-09T13:19:58.382Z,0.10
2019-05-09T13:23:52.235Z,0.10
2019-05-09T13:26:19.853Z,0.10
2019-05-09T13:28:52.445Z,0.42
2019-05-09T13:31:21.977Z,0.10
2019-05-09T13:33:51.416Z,0.30
2019-05-09T13:36:23.729Z,0.10
2019-05-09T13:39:00.543Z,0.10
2019-05-09T13:41:27.929Z,0.10
2019-05-09T13:44:04.936Z,0.10
2019-05-09T13:46:30.012Z,0.10
2019-05-09T13:49:10.803Z,2.17
2019-05-09T13:51:32.383Z,0.10
2019-05-09T13:54:01.855Z,0.45
2019-05-09T13:56:34.786Z,0.10
2019-05-09T13:59:07.968Z,0.00
2019-05-09T14:01:37.871Z,0.10
2019-05-09T14:04:11.779Z,0.10
2019-05-09T14:06:45.681Z,0.10
2019-05-09T14:09:20.000Z,0.10
2019-05-09T14:12:01.662Z,0.10
2019-05-09T14:14:48.760Z,0.40
2019-05-09T14:17:19.357Z,0.10
2019-05-09T14:19:51.170Z,0.10
2019-05-09T14:22:21.114Z,0.10
2019-05-09T14:24:50.575Z,0.10
2019-05-09T14:27:20.176Z,0.10
2019-05-09T14:29:49.874Z,0.10
2019-05-09T14:32:21.034Z,26.60
2019-05-09T14:34:51.270Z,0.10
2019-05-09T14:37:21.630Z,0.10
2019-05-09T14:39:58.473Z,0.10
2019-05-09T14:43:53.541Z,0.90
2019-05-09T14:46:22.911Z,0.13
2019-05-09T14:48:54.749Z,0.10
2019-05-09T14:51:24.516Z,0.05
2019-05-09T14:53:53.900Z,0.72
2019-05-09T14:56:24.504Z,0.10
2019-05-09T14:58:57.704Z,0.10
2019-05-09T15:01:28.759Z,0.20
2019-05-09T15:03:58.608Z,0.10
2019-05-09T15:06:28.445Z,0.00
2019-05-09T15:08:58.245Z,0.10
2019-05-09T15:11:28.341Z,0.10
2019-05-09T15:13:58.561Z,0.30
2019-05-09T15:16:28.457Z,0.17
2019-05-09T15:18:58.595Z,0.10
2019-05-09T15:21:28.301Z,0.10
2019-05-09T15:23:59.285Z,0.10
2019-05-09T15:26:29.482Z,0.20
2019-05-09T15:29:01.117Z,0.10
2019-05-09T15:31:31.121Z,0.10
2019-05-09T15:34:01.092Z,0.10
2019-05-09T15:36:30.478Z,0.10
2019-05-09T15:39:04.122Z,0.23
2019-05-09T15:41:33.557Z,0.10
2019-05-09T15:44:09.874Z,0.20
2019-05-09T15:46:41.110Z,0.20
2019-05-09T15:49:10.594Z,0.20
2019-05-09T15:51:40.028Z,0.10
2019-05-09T15:54:09.581Z,0.20
2019-05-09T15:56:38.967Z,0.20
2019-05-09T15:59:08.526Z,0.20
2019-05-09T16:01:38.582Z,1.23
2019-05-09T16:04:08.731Z,0.10
2019-05-09T16:06:39.099Z,0.10
2019-05-09T16:09:12.029Z,0.10
2019-05-09T16:11:40.959Z,0.30
2019-05-09T16:14:10.339Z,0.20
2019-05-09T16:16:39.800Z,0.15
2019-05-09T16:19:09.436Z,0.70
2019-05-09T16:21:38.871Z,0.10
2019-05-09T16:24:08.384Z,0.10
2019-05-09T16:26:38.519Z,0.20
2019-05-09T16:31:52.153Z,0.40
2019-05-09T16:34:21.488Z,0.20
2019-05-09T16:36:50.864Z,9.00
2019-05-09T16:39:20.387Z,0.40
2019-05-09T16:41:49.827Z,0.13
2019-05-09T16:44:19.242Z,0.10
2019-05-09T16:46:49.082Z,0.30
2019-05-09T16:49:19.911Z,0.30
2019-05-09T16:51:49.805Z,0.40
2019-05-09T16:54:19.866Z,0.10
2019-05-09T16:56:49.266Z,0.10
2019-05-09T16:59:18.672Z,0.15
2019-05-09T17:01:50.247Z,0.10
2019-05-09T17:04:19.464Z,0.20
2019-05-09T17:06:49.785Z,0.90
2019-05-09T17:09:19.448Z,0.20
2019-05-09T17:13:07.651Z,1.80
2019-05-09T17:15:54.043Z,9.10
2019-05-09T17:18:23.437Z,0.10
2019-05-09T17:24:08.249Z,0.43
2019-05-09T17:26:37.874Z,0.83
2019-05-09T17:29:07.560Z,0.30
2019-05-09T17:31:38.382Z,1.30
2019-05-09T17:34:07.843Z,0.20
2019-05-09T17:36:38.544Z,0.37
2019-05-09T17:39:09.106Z,0.40
2019-05-09T17:41:38.638Z,0.10
2019-05-09T17:44:08.038Z,0.30
2019-05-09T17:46:38.577Z,0.10
2019-05-09T17:49:10.029Z,0.30
2019-05-09T17:51:39.527Z,0.10
2019-05-09T17:54:09.132Z,0.10
2019-05-09T17:56:38.551Z,0.10
2019-05-09T17:59:08.578Z,0.47
2019-05-09T18:01:38.069Z,0.10
2019-05-09T18:04:09.126Z,0.10
2019-05-09T18:06:38.631Z,0.67
2019-05-09T18:09:08.567Z,0.10
2019-05-09T18:12:00.244Z,0.10
2019-05-09T18:14:29.615Z,0.10
2019-05-09T18:16:59.043Z,0.10
2019-05-09T18:19:29.283Z,0.10
2019-05-09T18:21:59.322Z,0.10
2019-05-09T18:24:29.054Z,0.30
2019-05-09T18:26:58.521Z,0.10
2019-05-09T18:29:29.103Z,0.20
2019-05-09T18:32:15.593Z,0.17
2019-05-09T18:34:45.190Z,0.10
2019-05-09T18:37:14.559Z,0.20
2019-05-09T18:41:35.318Z,2.37
2019-05-09T18:44:04.757Z,0.60
2019-05-09T18:46:34.414Z,0.40
2019-05-09T18:49:03.767Z,0.37
2019-05-09T18:51:33.405Z,0.10
2019-05-09T18:54:02.793Z,0.20
2019-05-09T18:56:32.263Z,0.20
2019-05-09T18:59:01.660Z,0.10
2019-05-09T19:01:31.111Z,0.10
2019-05-09T19:04:00.505Z,1.40
2019-05-09T19:06:30.010Z,0.10
2019-05-09T19:08:59.492Z,0.10
2019-05-09T19:11:29.193Z,0.20
2019-05-09T19:13:59.377Z,0.20
2019-05-09T19:16:46.782Z,0.30
2019-05-09T19:19:33.100Z,0.20
2019-05-09T19:22:06.591Z,0.10
2019-05-09T19:24:35.462Z,0.20
2019-05-09T19:27:38.492Z,0.10
2019-05-09T19:32:12.469Z,0.10
2019-05-09T19:34:41.734Z,0.40
2019-05-09T19:37:13.174Z,0.10
2019-05-09T19:39:42.395Z,0.20
2019-05-09T19:42:11.829Z,0.60
2019-05-09T19:44:41.237Z,0.20
2019-05-09T19:47:10.621Z,0.30
2019-05-09T19:49:39.977Z,0.10
2019-05-09T19:52:09.083Z,0.10
2019-05-09T19:54:38.394Z,0.10
2019-05-09T19:57:07.675Z,0.10
2019-05-09T19:59:38.542Z,0.10
2019-05-09T20:02:07.761Z,0.10
2019-05-09T20:04:37.147Z,0.10
2019-05-09T20:07:06.462Z,0.10
2019-05-09T20:09:37.425Z,0.10
2019-05-09T20:12:12.404Z,0.00
2019-05-09T20:14:44.508Z,0.10
2019-05-09T20:17:15.605Z,0.10
2019-05-09T20:19:45.114Z,0.03
2019-05-09T20:22:14.798Z,0.10
2019-05-09T20:24:44.272Z,0.00
2019-05-09T20:27:13.611Z,0.00
2019-05-09T20:29:42.924Z,0.10
2019-05-09T20:32:12.371Z,0.10
2019-05-09T20:34:41.797Z,0.10
2019-05-09T20:37:11.313Z,0.10
2019-05-09T20:39:41.056Z,0.00
2019-05-09T20:42:10.599Z,0.10
2019-05-09T20:44:40.249Z,0.13
2019-05-09T20:47:09.792Z,0.00
2019-05-09T20:49:39.348Z,0.00
2019-05-09T20:52:08.808Z,0.10
2019-05-09T20:54:38.352Z,0.00
2019-05-09T20:57:07.715Z,0.10
2019-05-09T20:59:37.176Z,0.00
2019-05-09T21:02:06.549Z,0.00
2019-05-09T21:04:35.988Z,0.20
2019-05-09T21:07:05.587Z,0.10
2019-05-09T21:09:36.196Z,0.10
2019-05-09T21:12:05.919Z,0.20
2019-05-09T21:14:35.658Z,0.00
2019-05-09T21:17:05.219Z,0.10
2019-05-09T21:19:34.842Z,0.17
2019-05-09T21:22:04.364Z,0.10
2019-05-09T21:24:33.943Z,0.10
2019-05-09T21:27:03.519Z,0.10
2019-05-09T21:29:32.854Z,0.27
2019-05-09T21:32:02.081Z,0.20
2019-05-09T21:34:32.567Z,0.10
2019-05-09T21:37:02.191Z,0.10
2019-05-09T21:39:31.607Z,0.00
2019-05-09T21:42:01.039Z,0.10
2019-05-09T21:44:31.567Z,0.10
2019-05-09T21:47:00.906Z,0.10
2019-05-09T21:49:30.047Z,0.10
2019-05-09T21:51:59.372Z,0.10
2019-05-09T21:54:28.750Z,0.10
2019-05-09T21:56:58.174Z,0.10
2019-05-09T21:59:28.627Z,0.10
2019-05-09T22:01:58.050Z,0.20
2019-05-09T22:04:27.616Z,0.00
2019-05-09T22:06:57.055Z,0.00
2019-05-09T22:09:26.548Z,0.00
2019-05-09T22:11:55.886Z,0.10
2019-05-09T22:14:25.068Z,0.10
2019-05-09T22:16:54.918Z,0.10
2019-05-09T22:19:24.273Z,0.33
2019-05-09T22:21:53.737Z,0.20
2019-05-09T22:24:23.105Z,0.43
2019-05-09T22:26:52.525Z,0.10
2019-05-09T22:29:21.929Z,0.00
2019-05-09T22:31:51.058Z,0.00
2019-05-09T22:34:21.429Z,0.10
2019-05-09T22:36:50.893Z,0.10
2019-05-09T22:39:20.326Z,0.10
2019-05-09T22:41:49.755Z,0.10
2019-05-09T22:44:18.975Z,0.10
2019-05-09T22:46:48.246Z,0.00
2019-05-09T22:52:01.459Z,0.00
2019-05-09T22:54:30.932Z,0.20
2019-05-09T22:57:00.129Z,0.10
2019-05-09T22:59:29.492Z,0.10
2019-05-09T23:01:58.910Z,0.10
2019-05-09T23:04:28.295Z,0.10
2019-05-09T23:06:57.763Z,0.03
2019-05-09T23:09:27.230Z,0.10
2019-05-09T23:11:56.791Z,0.10
2019-05-09T23:14:27.494Z,0.10
2019-05-09T23:16:56.840Z,0.00
2019-05-09T23:19:26.194Z,0.10
2019-05-09T23:21:55.755Z,0.10
2019-05-09T23:24:28.807Z,0.10
2019-05-09T23:26:57.739Z,0.00
2019-05-09T23:29:27.088Z,0.20
2019-05-09T23:32:10.201Z,0.10
2019-05-09T23:34:39.402Z,0.10
2019-05-09T23:37:08.476Z,0.03
2019-05-09T23:39:39.467Z,0.10
2019-05-09T23:42:08.901Z,0.37
2019-05-09T23:44:38.400Z,0.00
2019-05-09T23:47:07.818Z,0.10
2019-05-09T23:49:37.174Z,0.00
2019-05-09T23:52:06.611Z,0.10
